sensor_id;sensor_type;location;lat;lon;timestamp;P1;durP1;ratioP1;P2;durP2;ratioP2
19691;SDS011;42748;50.016;19.890;2023-04-06T00:01:13;26.00;;;13.10;;
19691;SDS011;42748;50.016;19.890;2023-04-06T00:03:40;26.47;;;12.20;;
19691;SDS011;42748;50.016;19.890;2023-04-06T00:06:08;25.97;;;11.90;;
19691;SDS011;42748;50.016;19.890;2023-04-06T00:08:34;29.63;;;12.77;;
19691;SDS011;42748;50.016;19.890;2023-04-06T00:11:02;26.37;;;12.50;;
19691;SDS011;42748;50.016;19.890;2023-04-06T00:13:29;26.87;;;12.30;;
19691;SDS011;42748;50.016;19.890;2023-04-06T00:15:56;25.60;;;12.33;;
19691;SDS011;42748;50.016;19.890;2023-04-06T00:18:23;24.27;;;11.73;;
19691;SDS011;42748;50.016;19.890;2023-04-06T00:20:50;24.53;;;12.23;;
19691;SDS011;42748;50.016;19.890;2023-04-06T00:23:17;28.50;;;12.97;;
19691;SDS011;42748;50.016;19.890;2023-04-06T00:25:44;29.80;;;12.97;;
19691;SDS011;42748;50.016;19.890;2023-04-06T00:28:11;24.00;;;12.00;;
19691;SDS011;42748;50.016;19.890;2023-04-06T00:30:38;24.77;;;11.90;;
19691;SDS011;42748;50.016;19.890;2023-04-06T00:33:06;26.23;;;11.97;;
19691;SDS011;42748;50.016;19.890;2023-04-06T00:35:33;29.00;;;12.37;;
19691;SDS011;42748;50.016;19.890;2023-04-06T00:38:01;27.87;;;12.40;;
19691;SDS011;42748;50.016;19.890;2023-04-06T00:40:28;24.43;;;11.87;;
19691;SDS011;42748;50.016;19.890;2023-04-06T00:42:55;28.20;;;12.17;;
19691;SDS011;42748;50.016;19.890;2023-04-06T00:45:22;27.17;;;11.50;;
19691;SDS011;42748;50.016;19.890;2023-04-06T00:47:49;25.93;;;12.23;;
19691;SDS011;42748;50.016;19.890;2023-04-06T00:50:16;26.90;;;12.30;;
19691;SDS011;42748;50.016;19.890;2023-04-06T00:52:44;27.57;;;12.53;;
19691;SDS011;42748;50.016;19.890;2023-04-06T00:55:11;25.43;;;12.00;;
19691;SDS011;42748;50.016;19.890;2023-04-06T00:57:41;21.47;;;11.17;;
19691;SDS011;42748;50.016;19.890;2023-04-06T01:00:08;25.43;;;11.93;;
19691;SDS011;42748;50.016;19.890;2023-04-06T01:02:37;27.27;;;11.70;;
19691;SDS011;42748;50.016;19.890;2023-04-06T01:05:04;26.27;;;11.60;;
19691;SDS011;42748;50.016;19.890;2023-04-06T01:07:43;22.83;;;10.93;;
19691;SDS011;42748;50.016;19.890;2023-04-06T01:10:28;27.53;;;11.37;;
19691;SDS011;42748;50.016;19.890;2023-04-06T01:13:09;23.40;;;11.07;;
19691;SDS011;42748;50.016;19.890;2023-04-06T01:15:50;23.20;;;11.27;;
19691;SDS011;42748;50.016;19.890;2023-04-06T01:18:27;24.50;;;11.53;;
19691;SDS011;42748;50.016;19.890;2023-04-06T01:21:27;23.90;;;11.30;;
19691;SDS011;42748;50.016;19.890;2023-04-06T01:24:21;26.70;;;11.77;;
19691;SDS011;42748;50.016;19.890;2023-04-06T01:27:06;23.97;;;11.17;;
19691;SDS011;42748;50.016;19.890;2023-04-06T01:29:45;27.43;;;11.77;;
19691;SDS011;42748;50.016;19.890;2023-04-06T01:32:19;23.27;;;11.13;;
19691;SDS011;42748;50.016;19.890;2023-04-06T01:34:49;26.00;;;11.57;;
19691;SDS011;42748;50.016;19.890;2023-04-06T01:37:17;23.97;;;11.97;;
19691;SDS011;42748;50.016;19.890;2023-04-06T01:39:44;27.57;;;11.90;;
19691;SDS011;42748;50.016;19.890;2023-04-06T01:42:20;26.33;;;11.33;;
19691;SDS011;42748;50.016;19.890;2023-04-06T01:44:47;25.60;;;11.73;;
19691;SDS011;42748;50.016;19.890;2023-04-06T01:47:15;26.03;;;11.53;;
19691;SDS011;42748;50.016;19.890;2023-04-06T01:49:43;26.50;;;11.77;;
19691;SDS011;42748;50.016;19.890;2023-04-06T01:52:12;25.30;;;11.63;;
19691;SDS011;42748;50.016;19.890;2023-04-06T01:54:42;23.90;;;11.57;;
19691;SDS011;42748;50.016;19.890;2023-04-06T01:57:32;26.23;;;12.17;;
19691;SDS011;42748;50.016;19.890;2023-04-06T02:00:15;26.33;;;11.73;;
19691;SDS011;42748;50.016;19.890;2023-04-06T02:02:49;25.23;;;12.70;;
19691;SDS011;42748;50.016;19.890;2023-04-06T02:05:22;27.53;;;12.80;;
19691;SDS011;42748;50.016;19.890;2023-04-06T02:07:51;24.23;;;12.33;;
19691;SDS011;42748;50.016;19.890;2023-04-06T02:10:27;28.40;;;13.00;;
19691;SDS011;42748;50.016;19.890;2023-04-06T02:12:56;28.67;;;13.13;;
19691;SDS011;42748;50.016;19.890;2023-04-06T02:15:25;27.73;;;13.33;;
19691;SDS011;42748;50.016;19.890;2023-04-06T02:17:53;26.93;;;13.17;;
19691;SDS011;42748;50.016;19.890;2023-04-06T02:20:20;30.00;;;14.03;;
19691;SDS011;42748;50.016;19.890;2023-04-06T02:22:48;29.93;;;14.33;;
19691;SDS011;42748;50.016;19.890;2023-04-06T02:25:16;28.97;;;13.83;;
19691;SDS011;42748;50.016;19.890;2023-04-06T02:27:43;27.83;;;14.47;;
19691;SDS011;42748;50.016;19.890;2023-04-06T02:30:10;30.33;;;15.07;;
19691;SDS011;42748;50.016;19.890;2023-04-06T02:32:38;34.47;;;14.70;;
19691;SDS011;42748;50.016;19.890;2023-04-06T02:35:05;32.37;;;13.90;;
19691;SDS011;42748;50.016;19.890;2023-04-06T02:37:33;27.37;;;13.73;;
19691;SDS011;42748;50.016;19.890;2023-04-06T02:40:01;28.77;;;14.27;;
19691;SDS011;42748;50.016;19.890;2023-04-06T02:42:30;30.53;;;14.87;;
19691;SDS011;42748;50.016;19.890;2023-04-06T02:44:57;30.43;;;14.67;;
19691;SDS011;42748;50.016;19.890;2023-04-06T02:47:29;31.17;;;15.40;;
19691;SDS011;42748;50.016;19.890;2023-04-06T02:49:56;31.17;;;14.57;;
19691;SDS011;42748;50.016;19.890;2023-04-06T02:52:23;29.27;;;15.00;;
19691;SDS011;42748;50.016;19.890;2023-04-06T02:57:49;34.20;;;15.17;;
19691;SDS011;42748;50.016;19.890;2023-04-06T03:00:20;33.27;;;14.67;;
19691;SDS011;42748;50.016;19.890;2023-04-06T03:02:47;32.50;;;15.43;;
19691;SDS011;42748;50.016;19.890;2023-04-06T03:05:16;36.63;;;15.20;;
19691;SDS011;42748;50.016;19.890;2023-04-06T03:07:45;32.13;;;15.37;;
19691;SDS011;42748;50.016;19.890;2023-04-06T03:10:19;28.20;;;14.73;;
19691;SDS011;42748;50.016;19.890;2023-04-06T03:12:47;33.10;;;14.27;;
19691;SDS011;42748;50.016;19.890;2023-04-06T03:15:18;30.07;;;14.77;;
19691;SDS011;42748;50.016;19.890;2023-04-06T03:17:53;31.70;;;13.97;;
19691;SDS011;42748;50.016;19.890;2023-04-06T03:20:34;34.50;;;15.77;;
19691;SDS011;42748;50.016;19.890;2023-04-06T03:23:02;30.20;;;14.03;;
19691;SDS011;42748;50.016;19.890;2023-04-06T03:25:33;32.53;;;14.73;;
19691;SDS011;42748;50.016;19.890;2023-04-06T03:28:04;35.77;;;15.20;;
19691;SDS011;42748;50.016;19.890;2023-04-06T03:30:36;31.60;;;14.13;;
19691;SDS011;42748;50.016;19.890;2023-04-06T03:33:03;29.73;;;14.47;;
19691;SDS011;42748;50.016;19.890;2023-04-06T03:35:35;31.90;;;14.00;;
19691;SDS011;42748;50.016;19.890;2023-04-06T03:38:04;30.93;;;14.37;;
19691;SDS011;42748;50.016;19.890;2023-04-06T03:40:31;30.87;;;14.47;;
19691;SDS011;42748;50.016;19.890;2023-04-06T03:42:58;29.63;;;13.83;;
19691;SDS011;42748;50.016;19.890;2023-04-06T03:45:26;30.97;;;14.23;;
19691;SDS011;42748;50.016;19.890;2023-04-06T03:47:53;29.37;;;14.77;;
19691;SDS011;42748;50.016;19.890;2023-04-06T03:50:20;28.67;;;14.50;;
19691;SDS011;42748;50.016;19.890;2023-04-06T03:52:47;30.40;;;14.00;;
19691;SDS011;42748;50.016;19.890;2023-04-06T03:55:14;30.63;;;14.97;;
19691;SDS011;42748;50.016;19.890;2023-04-06T03:57:41;32.17;;;15.03;;
19691;SDS011;42748;50.016;19.890;2023-04-06T04:00:09;32.20;;;15.03;;
19691;SDS011;42748;50.016;19.890;2023-04-06T04:02:39;31.00;;;14.87;;
19691;SDS011;42748;50.016;19.890;2023-04-06T04:05:06;30.87;;;15.00;;
19691;SDS011;42748;50.016;19.890;2023-04-06T04:07:35;33.40;;;15.30;;
19691;SDS011;42748;50.016;19.890;2023-04-06T04:10:04;32.27;;;15.23;;
19691;SDS011;42748;50.016;19.890;2023-04-06T04:12:31;30.63;;;15.53;;
19691;SDS011;42748;50.016;19.890;2023-04-06T04:14:58;30.07;;;14.93;;
19691;SDS011;42748;50.016;19.890;2023-04-06T04:17:25;31.90;;;14.60;;
19691;SDS011;42748;50.016;19.890;2023-04-06T04:19:52;33.10;;;15.47;;
19691;SDS011;42748;50.016;19.890;2023-04-06T04:22:19;32.73;;;15.13;;
19691;SDS011;42748;50.016;19.890;2023-04-06T04:24:46;30.03;;;15.23;;
19691;SDS011;42748;50.016;19.890;2023-04-06T04:27:13;35.57;;;15.60;;
19691;SDS011;42748;50.016;19.890;2023-04-06T04:29:41;38.07;;;15.60;;
19691;SDS011;42748;50.016;19.890;2023-04-06T04:32:11;33.43;;;15.63;;
19691;SDS011;42748;50.016;19.890;2023-04-06T04:34:39;33.97;;;15.27;;
19691;SDS011;42748;50.016;19.890;2023-04-06T04:37:10;36.50;;;16.47;;
19691;SDS011;42748;50.016;19.890;2023-04-06T04:39:49;33.27;;;15.27;;
19691;SDS011;42748;50.016;19.890;2023-04-06T04:42:16;34.77;;;15.07;;
19691;SDS011;42748;50.016;19.890;2023-04-06T04:44:49;35.07;;;16.63;;
19691;SDS011;42748;50.016;19.890;2023-04-06T04:47:27;36.50;;;15.97;;
19691;SDS011;42748;50.016;19.890;2023-04-06T04:49:54;33.83;;;14.93;;
19691;SDS011;42748;50.016;19.890;2023-04-06T04:52:23;36.07;;;16.23;;
19691;SDS011;42748;50.016;19.890;2023-04-06T04:54:57;35.20;;;16.10;;
19691;SDS011;42748;50.016;19.890;2023-04-06T04:57:27;33.67;;;15.50;;
19691;SDS011;42748;50.016;19.890;2023-04-06T04:59:54;33.17;;;15.30;;
19691;SDS011;42748;50.016;19.890;2023-04-06T05:02:23;33.07;;;16.37;;
19691;SDS011;42748;50.016;19.890;2023-04-06T05:05:17;33.90;;;15.17;;
19691;SDS011;42748;50.016;19.890;2023-04-06T05:07:44;32.60;;;15.07;;
19691;SDS011;42748;50.016;19.890;2023-04-06T05:10:22;30.80;;;15.53;;
19691;SDS011;42748;50.016;19.890;2023-04-06T05:12:54;28.90;;;14.07;;
19691;SDS011;42748;50.016;19.890;2023-04-06T05:15:21;32.47;;;15.33;;
19691;SDS011;42748;50.016;19.890;2023-04-06T05:17:53;38.17;;;15.07;;
19691;SDS011;42748;50.016;19.890;2023-04-06T05:20:27;34.73;;;15.37;;
19691;SDS011;42748;50.016;19.890;2023-04-06T05:22:54;34.50;;;15.33;;
19691;SDS011;42748;50.016;19.890;2023-04-06T05:25:21;30.60;;;15.53;;
19691;SDS011;42748;50.016;19.890;2023-04-06T05:27:52;32.10;;;13.77;;
19691;SDS011;42748;50.016;19.890;2023-04-06T05:30:38;29.93;;;14.57;;
19691;SDS011;42748;50.016;19.890;2023-04-06T05:33:07;29.33;;;14.57;;
19691;SDS011;42748;50.016;19.890;2023-04-06T05:35:47;32.27;;;14.73;;
19691;SDS011;42748;50.016;19.890;2023-04-06T05:38:14;33.23;;;14.60;;
19691;SDS011;42748;50.016;19.890;2023-04-06T05:40:41;30.97;;;15.17;;
19691;SDS011;42748;50.016;19.890;2023-04-06T05:43:13;33.40;;;14.87;;
19691;SDS011;42748;50.016;19.890;2023-04-06T05:45:46;36.30;;;16.03;;
19691;SDS011;42748;50.016;19.890;2023-04-06T05:48:13;37.60;;;15.90;;
19691;SDS011;42748;50.016;19.890;2023-04-06T05:50:40;35.57;;;15.30;;
19691;SDS011;42748;50.016;19.890;2023-04-06T05:53:09;33.67;;;16.20;;
19691;SDS011;42748;50.016;19.890;2023-04-06T05:55:41;37.20;;;16.37;;
19691;SDS011;42748;50.016;19.890;2023-04-06T05:58:13;33.10;;;15.93;;
19691;SDS011;42748;50.016;19.890;2023-04-06T06:00:41;35.83;;;16.07;;
19691;SDS011;42748;50.016;19.890;2023-04-06T06:03:10;32.33;;;14.97;;
19691;SDS011;42748;50.016;19.890;2023-04-06T06:05:40;32.80;;;14.97;;
19691;SDS011;42748;50.016;19.890;2023-04-06T06:08:13;29.73;;;14.83;;
19691;SDS011;42748;50.016;19.890;2023-04-06T06:10:40;34.83;;;16.10;;
19691;SDS011;42748;50.016;19.890;2023-04-06T06:13:10;35.70;;;16.33;;
19691;SDS011;42748;50.016;19.890;2023-04-06T06:15:37;36.07;;;16.10;;
19691;SDS011;42748;50.016;19.890;2023-04-06T06:18:05;30.23;;;14.20;;
19691;SDS011;42748;50.016;19.890;2023-04-06T06:20:32;28.83;;;13.53;;
19691;SDS011;42748;50.016;19.890;2023-04-06T06:23:02;27.10;;;13.50;;
19691;SDS011;42748;50.016;19.890;2023-04-06T06:25:30;26.70;;;12.50;;
19691;SDS011;42748;50.016;19.890;2023-04-06T06:27:57;28.37;;;13.07;;
19691;SDS011;42748;50.016;19.890;2023-04-06T06:30:27;24.70;;;11.97;;
19691;SDS011;42748;50.016;19.890;2023-04-06T06:32:54;23.07;;;11.73;;
19691;SDS011;42748;50.016;19.890;2023-04-06T06:35:21;22.23;;;11.67;;
19691;SDS011;42748;50.016;19.890;2023-04-06T06:37:49;24.20;;;12.10;;
19691;SDS011;42748;50.016;19.890;2023-04-06T06:40:19;22.83;;;12.23;;
19691;SDS011;42748;50.016;19.890;2023-04-06T06:42:52;26.43;;;12.90;;
19691;SDS011;42748;50.016;19.890;2023-04-06T06:45:46;22.33;;;11.73;;
19691;SDS011;42748;50.016;19.890;2023-04-06T06:48:13;21.87;;;11.20;;
19691;SDS011;42748;50.016;19.890;2023-04-06T06:50:40;23.17;;;11.80;;
19691;SDS011;42748;50.016;19.890;2023-04-06T06:53:07;21.70;;;11.77;;
19691;SDS011;42748;50.016;19.890;2023-04-06T06:55:34;19.10;;;10.87;;
19691;SDS011;42748;50.016;19.890;2023-04-06T06:58:02;20.53;;;10.93;;
19691;SDS011;42748;50.016;19.890;2023-04-06T07:00:29;21.10;;;11.17;;
19691;SDS011;42748;50.016;19.890;2023-04-06T07:02:57;25.43;;;11.10;;
19691;SDS011;42748;50.016;19.890;2023-04-06T07:05:24;25.67;;;12.47;;
19691;SDS011;42748;50.016;19.890;2023-04-06T07:07:56;17.43;;;10.13;;
19691;SDS011;42748;50.016;19.890;2023-04-06T07:10:24;20.47;;;10.73;;
19691;SDS011;42748;50.016;19.890;2023-04-06T07:12:52;19.37;;;9.70;;
19691;SDS011;42748;50.016;19.890;2023-04-06T07:15:20;17.43;;;9.07;;
19691;SDS011;42748;50.016;19.890;2023-04-06T07:17:48;17.47;;;8.73;;
19691;SDS011;42748;50.016;19.890;2023-04-06T07:20:15;18.13;;;8.67;;
19691;SDS011;42748;50.016;19.890;2023-04-06T07:22:43;15.23;;;7.87;;
19691;SDS011;42748;50.016;19.890;2023-04-06T07:25:11;17.87;;;9.10;;
19691;SDS011;42748;50.016;19.890;2023-04-06T07:27:40;13.63;;;7.50;;
19691;SDS011;42748;50.016;19.890;2023-04-06T07:30:07;13.77;;;8.00;;
19691;SDS011;42748;50.016;19.890;2023-04-06T07:32:35;14.53;;;7.87;;
19691;SDS011;42748;50.016;19.890;2023-04-06T07:35:03;17.03;;;7.83;;
19691;SDS011;42748;50.016;19.890;2023-04-06T07:37:30;13.50;;;7.97;;
19691;SDS011;42748;50.016;19.890;2023-04-06T07:39:57;14.43;;;7.77;;
19691;SDS011;42748;50.016;19.890;2023-04-06T07:42:25;13.60;;;6.90;;
19691;SDS011;42748;50.016;19.890;2023-04-06T07:44:52;14.90;;;7.47;;
19691;SDS011;42748;50.016;19.890;2023-04-06T07:47:20;13.27;;;6.83;;
19691;SDS011;42748;50.016;19.890;2023-04-06T07:49:48;13.30;;;7.17;;
19691;SDS011;42748;50.016;19.890;2023-04-06T07:52:15;14.77;;;7.60;;
19691;SDS011;42748;50.016;19.890;2023-04-06T07:54:43;14.90;;;8.23;;
19691;SDS011;42748;50.016;19.890;2023-04-06T07:57:10;17.73;;;8.70;;
19691;SDS011;42748;50.016;19.890;2023-04-06T07:59:37;17.73;;;9.10;;
19691;SDS011;42748;50.016;19.890;2023-04-06T08:02:05;14.67;;;8.33;;
19691;SDS011;42748;50.016;19.890;2023-04-06T08:04:32;14.80;;;7.50;;
19691;SDS011;42748;50.016;19.890;2023-04-06T08:07:00;14.10;;;7.93;;
19691;SDS011;42748;50.016;19.890;2023-04-06T08:09:27;16.20;;;8.67;;
19691;SDS011;42748;50.016;19.890;2023-04-06T08:11:54;15.93;;;8.80;;
19691;SDS011;42748;50.016;19.890;2023-04-06T08:14:21;16.50;;;9.03;;
19691;SDS011;42748;50.016;19.890;2023-04-06T08:16:48;18.03;;;8.73;;
19691;SDS011;42748;50.016;19.890;2023-04-06T08:19:15;17.73;;;9.20;;
19691;SDS011;42748;50.016;19.890;2023-04-06T08:21:45;17.10;;;9.27;;
19691;SDS011;42748;50.016;19.890;2023-04-06T08:24:13;16.80;;;8.80;;
19691;SDS011;42748;50.016;19.890;2023-04-06T08:26:41;17.03;;;9.07;;
19691;SDS011;42748;50.016;19.890;2023-04-06T08:29:08;15.03;;;8.40;;
19691;SDS011;42748;50.016;19.890;2023-04-06T08:31:36;15.63;;;8.80;;
19691;SDS011;42748;50.016;19.890;2023-04-06T08:34:03;14.07;;;8.40;;
19691;SDS011;42748;50.016;19.890;2023-04-06T08:36:32;16.63;;;8.87;;
19691;SDS011;42748;50.016;19.890;2023-04-06T08:39:00;14.60;;;8.20;;
19691;SDS011;42748;50.016;19.890;2023-04-06T08:41:27;14.40;;;8.43;;
19691;SDS011;42748;50.016;19.890;2023-04-06T08:44:01;11.73;;;7.57;;
19691;SDS011;42748;50.016;19.890;2023-04-06T08:46:29;15.13;;;8.00;;
19691;SDS011;42748;50.016;19.890;2023-04-06T08:48:58;14.00;;;8.03;;
19691;SDS011;42748;50.016;19.890;2023-04-06T08:51:26;14.43;;;7.60;;
19691;SDS011;42748;50.016;19.890;2023-04-06T08:53:55;11.50;;;7.40;;
19691;SDS011;42748;50.016;19.890;2023-04-06T08:56:25;11.33;;;7.43;;
19691;SDS011;42748;50.016;19.890;2023-04-06T08:58:54;12.73;;;7.37;;
19691;SDS011;42748;50.016;19.890;2023-04-06T09:01:23;11.20;;;7.23;;
19691;SDS011;42748;50.016;19.890;2023-04-06T09:04:02;12.07;;;7.03;;
19691;SDS011;42748;50.016;19.890;2023-04-06T09:06:36;11.87;;;6.87;;
19691;SDS011;42748;50.016;19.890;2023-04-06T09:09:03;11.57;;;6.90;;
19691;SDS011;42748;50.016;19.890;2023-04-06T09:11:41;16.23;;;7.77;;
19691;SDS011;42748;50.016;19.890;2023-04-06T09:14:13;17.43;;;7.53;;
19691;SDS011;42748;50.016;19.890;2023-04-06T09:16:44;15.30;;;7.37;;
19691;SDS011;42748;50.016;19.890;2023-04-06T09:19:12;13.30;;;7.47;;
19691;SDS011;42748;50.016;19.890;2023-04-06T09:21:39;15.87;;;6.73;;
19691;SDS011;42748;50.016;19.890;2023-04-06T09:24:07;10.73;;;6.83;;
19691;SDS011;42748;50.016;19.890;2023-04-06T09:26:45;16.90;;;9.17;;
19691;SDS011;42748;50.016;19.890;2023-04-06T09:29:23;12.80;;;7.80;;
19691;SDS011;42748;50.016;19.890;2023-04-06T09:32:01;12.63;;;7.53;;
19691;SDS011;42748;50.016;19.890;2023-04-06T09:34:32;13.50;;;7.60;;
19691;SDS011;42748;50.016;19.890;2023-04-06T09:37:00;12.63;;;7.80;;
19691;SDS011;42748;50.016;19.890;2023-04-06T09:39:27;15.63;;;7.57;;
19691;SDS011;42748;50.016;19.890;2023-04-06T09:41:54;12.97;;;7.60;;
19691;SDS011;42748;50.016;19.890;2023-04-06T09:44:22;15.27;;;7.83;;
19691;SDS011;42748;50.016;19.890;2023-04-06T09:46:50;15.90;;;7.93;;
19691;SDS011;42748;50.016;19.890;2023-04-06T09:49:27;15.43;;;7.83;;
19691;SDS011;42748;50.016;19.890;2023-04-06T09:52:00;15.67;;;8.80;;
19691;SDS011;42748;50.016;19.890;2023-04-06T09:54:30;15.53;;;8.60;;
19691;SDS011;42748;50.016;19.890;2023-04-06T09:57:03;13.23;;;7.80;;
19691;SDS011;42748;50.016;19.890;2023-04-06T10:07:56;15.50;;;8.27;;
19691;SDS011;42748;50.016;19.890;2023-04-06T10:10:27;15.30;;;8.83;;
19691;SDS011;42748;50.016;19.890;2023-04-06T10:12:55;15.10;;;8.70;;
19691;SDS011;42748;50.016;19.890;2023-04-06T10:15:23;18.67;;;8.00;;
19691;SDS011;42748;50.016;19.890;2023-04-06T10:17:50;13.30;;;7.57;;
19691;SDS011;42748;50.016;19.890;2023-04-06T10:23:19;14.70;;;8.07;;
19691;SDS011;42748;50.016;19.890;2023-04-06T10:25:53;14.37;;;8.00;;
19691;SDS011;42748;50.016;19.890;2023-04-06T10:28:22;14.87;;;7.63;;
19691;SDS011;42748;50.016;19.890;2023-04-06T10:30:49;13.37;;;7.67;;
19691;SDS011;42748;50.016;19.890;2023-04-06T10:33:26;13.87;;;7.87;;
19691;SDS011;42748;50.016;19.890;2023-04-06T10:35:54;17.00;;;8.13;;
19691;SDS011;42748;50.016;19.890;2023-04-06T10:38:34;16.27;;;9.00;;
19691;SDS011;42748;50.016;19.890;2023-04-06T10:41:10;16.27;;;8.30;;
19691;SDS011;42748;50.016;19.890;2023-04-06T10:43:41;20.03;;;9.83;;
19691;SDS011;42748;50.016;19.890;2023-04-06T10:46:09;16.77;;;8.87;;
19691;SDS011;42748;50.016;19.890;2023-04-06T10:48:37;14.87;;;8.80;;
19691;SDS011;42748;50.016;19.890;2023-04-06T10:51:12;17.53;;;9.27;;
19691;SDS011;42748;50.016;19.890;2023-04-06T10:53:41;20.47;;;8.93;;
19691;SDS011;42748;50.016;19.890;2023-04-06T10:56:13;16.70;;;9.20;;
19691;SDS011;42748;50.016;19.890;2023-04-06T10:58:49;18.53;;;9.50;;
19691;SDS011;42748;50.016;19.890;2023-04-06T11:01:19;18.40;;;9.07;;
19691;SDS011;42748;50.016;19.890;2023-04-06T11:03:48;18.20;;;9.77;;
19691;SDS011;42748;50.016;19.890;2023-04-06T11:08:48;17.07;;;9.70;;
19691;SDS011;42748;50.016;19.890;2023-04-06T11:11:17;20.70;;;10.03;;
19691;SDS011;42748;50.016;19.890;2023-04-06T11:13:46;17.57;;;9.37;;
19691;SDS011;42748;50.016;19.890;2023-04-06T11:16:25;16.77;;;8.90;;
19691;SDS011;42748;50.016;19.890;2023-04-06T11:21:37;20.67;;;10.27;;
19691;SDS011;42748;50.016;19.890;2023-04-06T11:24:10;18.97;;;10.27;;
19691;SDS011;42748;50.016;19.890;2023-04-06T11:29:25;21.13;;;10.13;;
19691;SDS011;42748;50.016;19.890;2023-04-06T11:32:04;22.27;;;11.30;;
19691;SDS011;42748;50.016;19.890;2023-04-06T11:34:34;18.40;;;9.97;;
19691;SDS011;42748;50.016;19.890;2023-04-06T11:37:04;23.87;;;10.67;;
19691;SDS011;42748;50.016;19.890;2023-04-06T11:39:38;18.97;;;10.73;;
19691;SDS011;42748;50.016;19.890;2023-04-06T11:42:07;22.13;;;10.83;;
19691;SDS011;42748;50.016;19.890;2023-04-06T11:47:07;18.33;;;9.37;;
19691;SDS011;42748;50.016;19.890;2023-04-06T11:49:36;18.70;;;9.93;;
19691;SDS011;42748;50.016;19.890;2023-04-06T11:52:14;19.17;;;10.20;;
19691;SDS011;42748;50.016;19.890;2023-04-06T11:54:45;19.50;;;10.13;;
19691;SDS011;42748;50.016;19.890;2023-04-06T11:57:14;17.80;;;10.17;;
19691;SDS011;42748;50.016;19.890;2023-04-06T11:59:41;17.83;;;10.10;;
19691;SDS011;42748;50.016;19.890;2023-04-06T12:02:08;31.47;;;15.30;;
19691;SDS011;42748;50.016;19.890;2023-04-06T12:04:35;19.50;;;10.50;;
19691;SDS011;42748;50.016;19.890;2023-04-06T12:07:03;20.10;;;11.27;;
19691;SDS011;42748;50.016;19.890;2023-04-06T12:09:31;22.60;;;10.80;;
19691;SDS011;42748;50.016;19.890;2023-04-06T12:11:58;22.83;;;11.67;;
19691;SDS011;42748;50.016;19.890;2023-04-06T12:14:25;25.33;;;12.60;;
19691;SDS011;42748;50.016;19.890;2023-04-06T12:16:53;23.73;;;12.60;;
19691;SDS011;42748;50.016;19.890;2023-04-06T12:19:20;24.30;;;13.70;;
19691;SDS011;42748;50.016;19.890;2023-04-06T12:21:47;27.40;;;13.47;;
19691;SDS011;42748;50.016;19.890;2023-04-06T12:24:14;25.20;;;14.30;;
19691;SDS011;42748;50.016;19.890;2023-04-06T12:26:42;29.43;;;14.57;;
19691;SDS011;42748;50.016;19.890;2023-04-06T12:29:09;27.77;;;13.97;;
19691;SDS011;42748;50.016;19.890;2023-04-06T12:31:37;29.83;;;14.40;;
19691;SDS011;42748;50.016;19.890;2023-04-06T12:34:09;28.47;;;14.60;;
19691;SDS011;42748;50.016;19.890;2023-04-06T12:36:36;29.83;;;14.97;;
19691;SDS011;42748;50.016;19.890;2023-04-06T12:39:04;27.33;;;14.90;;
19691;SDS011;42748;50.016;19.890;2023-04-06T12:41:32;27.83;;;14.47;;
19691;SDS011;42748;50.016;19.890;2023-04-06T12:43:59;33.50;;;16.83;;
19691;SDS011;42748;50.016;19.890;2023-04-06T12:46:26;29.60;;;15.77;;
19691;SDS011;42748;50.016;19.890;2023-04-06T12:48:54;32.50;;;15.67;;
19691;SDS011;42748;50.016;19.890;2023-04-06T12:51:23;36.43;;;16.27;;
19691;SDS011;42748;50.016;19.890;2023-04-06T12:53:50;33.30;;;16.50;;
19691;SDS011;42748;50.016;19.890;2023-04-06T12:56:17;33.57;;;16.93;;
19691;SDS011;42748;50.016;19.890;2023-04-06T12:58:45;32.20;;;16.33;;
19691;SDS011;42748;50.016;19.890;2023-04-06T13:01:12;38.47;;;18.37;;
19691;SDS011;42748;50.016;19.890;2023-04-06T13:03:40;32.40;;;17.67;;
19691;SDS011;42748;50.016;19.890;2023-04-06T13:06:08;34.77;;;16.37;;
19691;SDS011;42748;50.016;19.890;2023-04-06T13:08:36;36.70;;;17.43;;
19691;SDS011;42748;50.016;19.890;2023-04-06T13:11:05;35.90;;;17.97;;
19691;SDS011;42748;50.016;19.890;2023-04-06T13:13:36;35.80;;;17.97;;
19691;SDS011;42748;50.016;19.890;2023-04-06T13:16:04;37.00;;;18.20;;
19691;SDS011;42748;50.016;19.890;2023-04-06T13:18:35;39.43;;;17.37;;
19691;SDS011;42748;50.016;19.890;2023-04-06T13:21:06;37.47;;;18.77;;
19691;SDS011;42748;50.016;19.890;2023-04-06T13:23:34;48.53;;;23.93;;
19691;SDS011;42748;50.016;19.890;2023-04-06T13:26:03;39.70;;;19.33;;
19691;SDS011;42748;50.016;19.890;2023-04-06T13:28:32;35.60;;;18.00;;
19691;SDS011;42748;50.016;19.890;2023-04-06T13:31:01;36.43;;;18.13;;
19691;SDS011;42748;50.016;19.890;2023-04-06T13:33:29;35.17;;;17.77;;
19691;SDS011;42748;50.016;19.890;2023-04-06T13:35:57;36.40;;;18.33;;
19691;SDS011;42748;50.016;19.890;2023-04-06T13:38:25;39.63;;;18.17;;
19691;SDS011;42748;50.016;19.890;2023-04-06T13:40:52;37.83;;;17.87;;
19691;SDS011;42748;50.016;19.890;2023-04-06T13:43:19;37.43;;;17.17;;
19691;SDS011;42748;50.016;19.890;2023-04-06T13:45:50;38.47;;;18.40;;
19691;SDS011;42748;50.016;19.890;2023-04-06T13:48:19;35.50;;;17.80;;
19691;SDS011;42748;50.016;19.890;2023-04-06T13:50:46;34.90;;;17.57;;
19691;SDS011;42748;50.016;19.890;2023-04-06T13:53:13;36.30;;;15.70;;
19691;SDS011;42748;50.016;19.890;2023-04-06T13:55:41;40.17;;;18.20;;
19691;SDS011;42748;50.016;19.890;2023-04-06T13:58:08;37.63;;;18.57;;
19691;SDS011;42748;50.016;19.890;2023-04-06T14:00:36;39.60;;;18.80;;
19691;SDS011;42748;50.016;19.890;2023-04-06T14:03:03;37.33;;;18.83;;
19691;SDS011;42748;50.016;19.890;2023-04-06T14:05:31;42.93;;;20.43;;
19691;SDS011;42748;50.016;19.890;2023-04-06T14:07:59;42.60;;;20.93;;
19691;SDS011;42748;50.016;19.890;2023-04-06T14:10:26;42.43;;;21.27;;
19691;SDS011;42748;50.016;19.890;2023-04-06T14:12:54;41.83;;;21.03;;
19691;SDS011;42748;50.016;19.890;2023-04-06T14:15:22;47.70;;;21.33;;
19691;SDS011;42748;50.016;19.890;2023-04-06T14:17:50;43.73;;;21.60;;
19691;SDS011;42748;50.016;19.890;2023-04-06T14:20:18;52.00;;;23.83;;
19691;SDS011;42748;50.016;19.890;2023-04-06T14:22:45;49.57;;;23.57;;
19691;SDS011;42748;50.016;19.890;2023-04-06T14:25:13;50.13;;;24.73;;
19691;SDS011;42748;50.016;19.890;2023-04-06T14:27:42;47.07;;;23.30;;
19691;SDS011;42748;50.016;19.890;2023-04-06T14:30:10;57.33;;;24.90;;
19691;SDS011;42748;50.016;19.890;2023-04-06T14:32:37;51.07;;;24.27;;
19691;SDS011;42748;50.016;19.890;2023-04-06T14:35:04;50.43;;;23.47;;
19691;SDS011;42748;50.016;19.890;2023-04-06T14:37:33;50.13;;;22.93;;
19691;SDS011;42748;50.016;19.890;2023-04-06T14:40:01;47.20;;;24.10;;
19691;SDS011;42748;50.016;19.890;2023-04-06T14:42:29;46.87;;;23.03;;
19691;SDS011;42748;50.016;19.890;2023-04-06T14:44:57;45.03;;;22.83;;
19691;SDS011;42748;50.016;19.890;2023-04-06T14:47:24;42.57;;;21.93;;
19691;SDS011;42748;50.016;19.890;2023-04-06T14:49:52;43.07;;;21.37;;
19691;SDS011;42748;50.016;19.890;2023-04-06T14:52:20;40.07;;;21.03;;